Time;durP1;ratioP1;P1;durP2;ratioP2;P2;SDS_P1;SDS_P2;PMS_P1;PMS_P2;Temp;Humidity;BMP_temperature;BMP_pressure;BME280_temperature;BME280_humidity;BME280_pressure;Samples;Min_cycle;Max_cycle;Signal;HPM_P1;HPM_P2
2022/01/12 00:01:27;;;;;;;39.08;18.50;;;8.50;99.90;;;;;;4161152;28;20050;-81
2022/01/12 00:03:29;;;;;;;35.80;16.92;;;8.50;99.90;;;;;;4182217;28;20068;-80
2022/01/12 00:05:31;;;;;;;32.75;15.55;;;8.50;99.90;;;;;;4183463;28;20080;-80
2022/01/12 00:07:33;;;;;;;35.10;16.40;;;8.50;99.90;;;;;;4175418;28;20127;-79
2022/01/12 00:09:35;;;;;;;38.63;16.08;;;8.50;99.90;;;;;;4176523;28;20132;-79
2022/01/12 00:11:37;;;;;;;35.60;15.65;;;8.50;99.90;;;;;;4172278;28;20049;-81
2022/01/12 00:13:39;;;;;;;35.97;15.82;;;8.50;99.90;;;;;;4175718;28;20065;-80
2022/01/12 00:15:41;;;;;;;32.15;15.18;;;8.50;99.90;;;;;;4167960;28;20046;-79
2022/01/12 00:17:44;;;;;;;33.42;15.73;;;8.50;99.90;;;;;;4168585;28;20057;-79
2022/01/12 00:19:46;;;;;;;35.38;15.98;;;8.50;99.90;;;;;;4166148;28;20041;-79
2022/01/12 00:21:48;;;;;;;32.35;14.82;;;8.50;99.90;;;;;;4166024;28;20064;-80
2022/01/12 00:23:50;;;;;;;35.25;14.10;;;8.50;99.90;;;;;;4165979;28;20049;-80
2022/01/12 00:26:05;;;;;;;36.15;14.40;;;8.50;99.90;;;;;;4163580;28;20052;-81
2022/01/12 00:35:08;;;;;;;30.38;14.75;;;8.50;99.90;;;;;;4167426;28;20572;-78
2022/01/12 00:37:11;;;;;;;27.88;14.18;;;8.50;99.90;;;;;;4153158;28;20061;-80
2022/01/12 00:39:13;;;;;;;33.10;15.55;;;8.50;99.90;;;;;;4149824;28;20554;-81
2022/01/12 00:41:17;;;;;;;30.15;14.73;;;8.50;99.90;;;;;;4155016;28;20069;-79
2022/01/12 00:43:21;;;;;;;35.15;15.95;;;8.50;99.90;;;;;;4156076;28;20077;-80
2022/01/12 00:45:23;;;;;;;32.90;16.33;;;8.50;99.90;;;;;;4166221;28;20045;-80
2022/01/12 00:47:25;;;;;;;31.65;15.80;;;8.50;99.90;;;;;;4181929;28;20527;-79
2022/01/12 00:49:27;;;;;;;36.70;17.55;;;8.50;99.90;;;;;;4182204;28;20095;-79
2022/01/12 00:51:34;;;;;;;32.60;16.88;;;8.40;99.90;;;;;;4183059;28;20128;-79
2022/01/12 00:53:35;;;;;;;36.97;18.00;;;8.50;99.90;;;;;;4159354;28;20104;-80
2022/01/12 00:55:38;;;;;;;33.78;17.90;;;8.50;99.90;;;;;;4155055;28;20076;-79
2022/01/12 00:57:40;;;;;;;33.78;18.65;;;8.50;99.90;;;;;;4150128;28;20074;-80
2022/01/12 00:59:42;;;;;;;36.95;17.58;;;8.40;99.90;;;;;;4157648;28;20125;-79
2022/01/12 01:01:44;;;;;;;34.20;16.92;;;8.40;99.90;;;;;;4164203;28;20050;-80
2022/01/12 01:03:51;;;;;;;32.67;17.23;;;8.40;99.90;;;;;;4151878;28;20104;-79
2022/01/12 01:05:53;;;;;;;28.80;15.88;;;8.40;99.90;;;;;;4164831;28;20045;-81
2022/01/12 01:07:55;;;;;;;31.92;16.67;;;8.40;99.90;;;;;;4165357;28;20045;-79
2022/01/12 01:10:04;;;;;;;34.00;17.67;;;8.40;99.90;;;;;;4159791;28;20073;-80
2022/01/12 01:12:07;;;;;;;26.52;15.90;;;8.40;99.90;;;;;;4169995;28;20045;-80
2022/01/12 01:14:20;;;;;;;34.47;16.23;;;8.40;99.90;;;;;;4165195;28;20045;-80
2022/01/12 01:16:42;;;;;;;32.70;15.98;;;8.40;99.90;;;;;;4163431;28;20473;-79
2022/01/12 01:25:48;;;;;;;28.63;14.35;;;8.40;99.90;;;;;;4178692;28;20555;-79
2022/01/12 01:27:50;;;;;;;28.70;14.63;;;8.40;99.90;;;;;;4152548;28;20041;-79
2022/01/12 01:29:54;;;;;;;24.60;15.25;;;8.40;99.90;;;;;;4148745;28;20046;-81
2022/01/12 01:31:56;;;;;;;25.00;14.05;;;8.40;99.90;;;;;;4155467;28;20052;-78
2022/01/12 01:34:05;;;;;;;25.20;13.82;;;8.40;99.90;;;;;;4166420;28;20053;-80
2022/01/12 01:36:07;;;;;;;23.77;13.18;;;8.30;99.90;;;;;;4169542;28;20088;-79
2022/01/12 01:38:10;;;;;;;24.48;12.70;;;8.40;99.90;;;;;;4154912;28;20128;-79
2022/01/12 01:40:13;;;;;;;26.55;12.77;;;8.40;99.90;;;;;;4153023;28;20127;-78
2022/01/12 01:42:28;;;;;;;26.00;13.23;;;8.40;99.90;;;;;;4159068;28;20141;-80
2022/01/12 01:53:37;;;;;;;22.40;11.60;;;8.40;99.90;;;;;;4160392;28;20045;-79
2022/01/12 01:55:40;;;;;;;22.10;12.57;;;8.40;99.90;;;;;;4167186;28;20068;-79
2022/01/12 01:57:42;;;;;;;23.55;12.13;;;8.40;99.90;;;;;;4163725;28;20053;-79
2022/01/12 01:59:45;;;;;;;24.73;13.98;;;8.40;99.90;;;;;;4149113;28;20555;-79
2022/01/12 02:01:47;;;;;;;27.65;13.65;;;8.40;99.90;;;;;;4148848;28;20053;-79
2022/01/12 02:03:49;;;;;;;26.80;13.32;;;8.40;99.90;;;;;;4153223;28;20072;-79
2022/01/12 02:05:51;;;;;;;26.05;14.73;;;8.40;99.90;;;;;;4162468;28;20057;-79
2022/01/12 02:07:53;;;;;;;23.60;14.00;;;8.40;99.90;;;;;;4155211;28;20074;-80
2022/01/12 02:09:55;;;;;;;26.63;14.27;;;8.40;99.90;;;;;;4165414;28;20076;-79
2022/01/12 02:11:57;;;;;;;25.23;15.23;;;8.40;99.90;;;;;;4153075;28;20117;-88
2022/01/12 02:14:00;;;;;;;28.23;15.00;;;8.40;99.90;;;;;;4158305;28;20080;-87
2022/01/12 02:16:02;;;;;;;25.13;15.63;;;8.40;99.90;;;;;;4165920;28;20081;-79
2022/01/12 02:36:26;;;;;;;34.83;15.95;;;8.40;99.90;;;;;;4164762;28;20545;-78
2022/01/12 02:40:52;;;;;;;31.48;15.48;;;8.30;99.90;;;;;;4163333;28;20137;-78
2022/01/12 02:43:07;;;;;;;30.13;16.70;;;8.30;99.90;;;;;;4160166;28;20073;-79
2022/01/12 02:54:19;;;;;;;32.72;16.55;;;8.30;99.90;;;;;;4148929;28;20089;-78
2022/01/12 02:56:27;;;;;;;36.00;16.98;;;8.30;99.90;;;;;;4151126;28;20084;-78
2022/01/12 02:58:28;;;;;;;36.90;17.17;;;8.30;99.90;;;;;;4162143;28;20077;-78
2022/01/12 03:00:46;;;;;;;41.13;18.20;;;8.30;99.90;;;;;;4160330;28;20041;-78
2022/01/12 03:02:52;;;;;;;38.60;18.30;;;8.30;99.90;;;;;;4162226;28;20080;-78
2022/01/12 03:05:46;;;;;;;36.13;18.65;;;8.30;99.90;;;;;;4155079;28;20042;-79
2022/01/12 03:07:21;;;;;;;37.92;18.05;;;8.30;99.90;;;;;;4144890;28;20422;-79
2022/01/12 03:09:23;;;;;;;39.33;18.00;;;8.30;99.90;;;;;;4153742;28;20505;-78
2022/01/12 03:11:26;;;;;;;40.35;19.02;;;8.30;99.90;;;;;;4163212;28;20133;-85
2022/01/12 03:13:28;;;;;;;41.95;18.48;;;8.30;99.90;;;;;;4150214;28;20084;-81
2022/01/12 03:15:38;;;;;;;35.30;18.27;;;8.30;99.90;;;;;;4148203;28;20141;-80
2022/01/12 03:17:40;;;;;;;40.95;18.48;;;8.30;99.90;;;;;;4147118;28;20053;-79
2022/01/12 03:19:42;;;;;;;40.97;18.45;;;8.30;99.90;;;;;;4151705;28;20061;-79
2022/01/12 03:21:45;;;;;;;34.55;18.25;;;8.30;99.90;;;;;;4158917;28;20042;-79
2022/01/12 03:23:47;;;;;;;37.70;18.15;;;8.30;99.90;;;;;;4160605;28;20050;-78
2022/01/12 03:25:49;;;;;;;43.30;18.00;;;8.30;99.90;;;;;;4163327;28;20080;-79
2022/01/12 03:27:56;;;;;;;37.75;18.60;;;8.30;99.90;;;;;;4163342;28;20144;-79
2022/01/12 03:29:58;;;;;;;36.85;18.58;;;8.30;99.90;;;;;;4146447;28;20521;-79
2022/01/12 03:32:02;;;;;;;45.47;19.33;;;8.30;99.90;;;;;;4160458;28;20080;-81
2022/01/12 03:38:27;;;;;;;37.78;18.33;;;8.30;99.90;;;;;;4147648;28;20108;-77
2022/01/12 03:40:29;;;;;;;38.63;17.77;;;8.30;99.90;;;;;;4146812;28;20100;-79
2022/01/12 03:42:31;;;;;;;35.65;18.50;;;8.30;99.90;;;;;;4147068;28;20085;-77
2022/01/12 03:44:33;;;;;;;34.08;18.60;;;8.30;99.90;;;;;;4158374;28;20045;-79
2022/01/12 03:46:45;;;;;;;33.72;18.55;;;8.30;99.90;;;;;;4161741;28;20136;-78
2022/01/12 03:48:47;;;;;;;34.00;17.63;;;8.30;99.90;;;;;;4162768;28;20510;-79
2022/01/12 03:50:49;;;;;;;36.13;17.73;;;8.30;99.90;;;;;;4161270;28;20049;-78
2022/01/12 03:52:50;;;;;;;37.40;18.10;;;8.30;99.90;;;;;;4164404;28;20129;-78
2022/01/12 03:54:52;;;;;;;36.30;18.08;;;8.30;99.90;;;;;;4166091;28;20085;-79
2022/01/12 03:56:55;;;;;;;34.75;17.90;;;8.30;99.90;;;;;;4167438;28;20091;-78
2022/01/12 03:58:56;;;;;;;34.95;17.52;;;8.30;99.90;;;;;;4162535;28;20113;-81
2022/01/12 04:00:58;;;;;;;34.58;17.95;;;8.30;99.90;;;;;;4150564;28;20046;-80
2022/01/12 04:03:03;;;;;;;34.05;17.50;;;8.30;99.90;;;;;;4149857;28;20052;-79
2022/01/12 04:05:27;;;;;;;40.20;18.20;;;8.30;99.90;;;;;;4149856;28;20101;-80
2022/01/12 04:09:50;;;;;;;36.72;19.05;;;8.30;99.90;;;;;;4150597;28;20077;-80
2022/01/12 04:11:52;;;;;;;35.28;17.00;;;8.30;99.90;;;;;;4151087;28;20132;-79
2022/01/12 04:13:54;;;;;;;33.08;16.92;;;8.30;99.90;;;;;;4151048;28;20503;-81
2022/01/12 04:16:03;;;;;;;29.80;16.05;;;8.30;99.90;;;;;;4159637;28;20077;-79
2022/01/12 04:18:04;;;;;;;30.35;15.90;;;8.20;99.90;;;;;;4152776;28;20081;-79
2022/01/12 04:20:07;;;;;;;31.15;17.10;;;8.20;99.90;;;;;;4162318;28;20495;-79
2022/01/12 04:24:30;;;;;;;28.90;16.20;;;8.20;99.90;;;;;;4159406;28;20054;-79
2022/01/12 04:26:31;;;;;;;29.23;16.95;;;8.20;99.90;;;;;;4150481;28;20089;-80
2022/01/12 04:28:33;;;;;;;28.70;15.18;;;8.20;99.90;;;;;;4155422;28;20054;-79
2022/01/12 04:30:35;;;;;;;29.90;16.15;;;8.30;99.90;;;;;;4160845;28;20073;-80
2022/01/12 04:32:41;;;;;;;31.80;15.85;;;8.30;99.90;;;;;;4155211;28;20053;-80
2022/01/12 04:34:43;;;;;;;29.60;16.73;;;8.30;99.90;;;;;;4159161;28;20069;-80
2022/01/12 04:36:45;;;;;;;30.10;16.20;;;8.30;99.90;;;;;;4162058;28;20077;-79
2022/01/12 04:38:47;;;;;;;32.60;16.45;;;8.30;99.90;;;;;;4155512;28;20045;-80
2022/01/12 04:40:49;;;;;;;32.75;16.63;;;8.30;99.90;;;;;;4149375;28;20133;-80
2022/01/12 04:42:53;;;;;;;39.15;17.80;;;8.30;99.90;;;;;;4149322;28;20100;-80
2022/01/12 04:45:03;;;;;;;28.35;15.77;;;8.30;99.90;;;;;;4158325;28;20046;-80
2022/01/12 04:47:08;;;;;;;32.28;16.40;;;8.30;99.90;;;;;;4165599;28;20068;-80
2022/01/12 04:49:36;;;;;;;30.48;16.20;;;8.30;99.90;;;;;;4165598;28;20116;-80
2022/01/12 04:51:38;;;;;;;30.38;16.25;;;8.30;99.90;;;;;;4153331;28;20073;-78
2022/01/12 04:53:39;;;;;;;28.30;15.38;;;8.30;99.90;;;;;;4161641;28;20691;-79
2022/01/12 04:55:42;;;;;;;32.75;16.15;;;8.30;99.90;;;;;;4165539;28;20091;-79
2022/01/12 04:57:44;;;;;;;31.65;15.27;;;8.30;99.90;;;;;;4165592;28;20092;-78
2022/01/12 05:00:03;;;;;;;32.60;16.10;;;8.40;99.90;;;;;;4166885;28;20077;-78
2022/01/12 05:06:22;;;;;;;32.88;16.60;;;8.40;99.90;;;;;;4154966;28;20053;-79
2022/01/12 05:07:10;;;;;;;35.30;15.57;;;8.40;99.90;;;;;;4163927;28;20137;-78
2022/01/12 05:09:39;;;;;;;32.58;15.88;;;8.30;99.90;;;;;;4166167;28;20081;-79
2022/01/12 05:13:56;;;;;;;28.55;14.32;;;8.30;99.90;;;;;;4165950;28;20824;-81
2022/01/12 05:16:00;;;;;;;21.95;12.45;;;8.30;99.90;;;;;;4166950;28;20044;-88
2022/01/12 05:18:02;;;;;;;23.48;12.43;;;8.30;99.90;;;;;;4167249;28;20132;-80
2022/01/12 05:20:05;;;;;;;24.52;12.68;;;8.30;99.90;;;;;;4165988;28;20080;-80
2022/01/12 05:22:07;;;;;;;24.10;13.05;;;8.30;99.90;;;;;;4169909;28;20083;-79
2022/01/12 05:24:10;;;;;;;25.15;13.65;;;8.30;99.90;;;;;;4180868;28;20081;-78
2022/01/12 05:26:12;;;;;;;27.98;12.50;;;8.30;99.90;;;;;;4179635;28;20132;-78
2022/01/12 05:28:16;;;;;;;28.90;13.90;;;8.30;99.90;;;;;;4181164;28;20128;-79
2022/01/12 05:30:17;;;;;;;28.65;13.13;;;8.30;99.90;;;;;;4166838;28;20493;-80
2022/01/12 05:32:20;;;;;;;25.80;12.63;;;8.30;99.90;;;;;;4181846;28;20807;-78
2022/01/12 05:34:25;;;;;;;26.67;13.10;;;8.30;99.90;;;;;;4181322;28;20548;-79
2022/01/12 05:36:28;;;;;;;24.75;12.88;;;8.30;99.90;;;;;;4178128;28;20129;-79
2022/01/12 05:38:31;;;;;;;26.08;12.60;;;8.30;99.90;;;;;;4181060;28;20049;-79
2022/01/12 05:40:33;;;;;;;23.77;12.60;;;8.30;99.90;;;;;;4181109;28;20091;-79
2022/01/12 05:42:35;;;;;;;25.85;12.90;;;8.30;99.90;;;;;;4182388;28;20059;-79
2022/01/12 05:44:40;;;;;;;27.05;12.75;;;8.30;99.90;;;;;;4173765;28;20041;-79
2022/01/12 05:46:43;;;;;;;20.50;11.80;;;8.30;99.90;;;;;;4181830;28;20453;-81
2022/01/12 05:51:06;;;;;;;24.70;12.27;;;8.20;99.90;;;;;;4166200;28;20076;-80
2022/01/12 05:53:09;;;;;;;24.42;12.02;;;8.20;99.90;;;;;;4166688;28;20042;-80
2022/01/12 05:55:12;;;;;;;27.75;12.45;;;8.20;99.90;;;;;;4176154;28;20080;-79
2022/01/12 05:57:14;;;;;;;19.83;10.90;;;8.20;99.90;;;;;;4181220;28;20056;-78
2022/01/12 05:59:16;;;;;;;23.30;11.48;;;8.20;99.90;;;;;;4164590;28;20096;-79
2022/01/12 06:01:19;;;;;;;23.70;11.50;;;8.20;99.90;;;;;;4163675;28;20072;-79
2022/01/12 06:03:21;;;;;;;21.38;10.77;;;8.10;99.90;;;;;;4168220;28;20053;-79
2022/01/12 06:05:24;;;;;;;23.90;11.35;;;8.10;99.90;;;;;;4165530;28;20092;-79
2022/01/12 06:07:26;;;;;;;24.20;11.18;;;8.10;99.90;;;;;;4180045;28;20041;-80
2022/01/12 06:09:28;;;;;;;26.90;12.40;;;8.10;99.90;;;;;;4180592;28;20044;-81
2022/01/12 06:11:30;;;;;;;25.20;12.43;;;8.20;99.90;;;;;;4180370;28;20091;-85
2022/01/12 06:13:32;;;;;;;25.92;14.23;;;8.20;99.90;;;;;;4177960;28;20045;-79
2022/01/12 06:15:34;;;;;;;30.33;15.35;;;8.20;99.90;;;;;;4180375;28;20150;-79
2022/01/12 06:17:37;;;;;;;28.88;14.82;;;8.20;99.90;;;;;;4180218;28;20076;-79
2022/01/12 06:19:39;;;;;;;30.75;14.75;;;8.20;99.90;;;;;;4168204;28;20096;-80
2022/01/12 06:21:42;;;;;;;38.28;15.25;;;8.20;99.90;;;;;;4164067;28;20096;-80
2022/01/12 06:23:44;;;;;;;33.80;15.25;;;8.20;99.90;;;;;;4164341;28;20581;-80
2022/01/12 06:25:46;;;;;;;31.00;13.95;;;8.10;99.90;;;;;;4164090;28;20050;-79
2022/01/12 06:27:55;;;;;;;29.58;14.75;;;8.20;99.90;;;;;;4165189;28;20182;-79
2022/01/12 06:30:15;;;;;;;29.23;13.35;;;8.10;99.90;;;;;;4172961;28;20049;-81
2022/01/12 06:32:17;;;;;;;26.63;13.63;;;8.20;99.90;;;;;;4164084;28;20128;-80
2022/01/12 06:34:19;;;;;;;26.48;13.68;;;8.10;99.90;;;;;;4179031;28;20081;-80
2022/01/12 06:36:22;;;;;;;27.70;13.27;;;8.10;99.90;;;;;;4164737;28;20133;-80
2022/01/12 06:38:24;;;;;;;25.98;12.60;;;8.10;99.90;;;;;;4164068;28;20057;-79
2022/01/12 06:40:26;;;;;;;21.95;12.27;;;8.10;99.90;;;;;;4162853;28;20077;-79
2022/01/12 06:42:28;;;;;;;24.50;11.73;;;8.10;99.90;;;;;;4168675;28;20044;-79
2022/01/12 06:44:30;;;;;;;25.13;11.65;;;8.10;99.90;;;;;;4164189;28;20130;-80
2022/01/12 06:46:34;;;;;;;27.70;13.45;;;8.10;99.90;;;;;;4170452;28;20084;-79
2022/01/12 06:48:36;;;;;;;26.98;11.55;;;8.10;99.90;;;;;;4176376;28;20080;-80
2022/01/12 06:50:38;;;;;;;26.38;12.13;;;8.10;99.90;;;;;;4163787;28;20517;-79
2022/01/12 06:52:40;;;;;;;24.70;11.40;;;8.00;99.90;;;;;;4178531;28;20584;-78
2022/01/12 06:54:41;;;;;;;28.98;11.95;;;8.10;99.90;;;;;;4179858;28;20390;-80
2022/01/12 06:56:43;;;;;;;25.13;12.25;;;8.00;99.90;;;;;;4180206;28;20120;-79
2022/01/12 06:58:46;;;;;;;27.98;12.52;;;8.00;99.90;;;;;;4180201;28;20088;-79
2022/01/12 07:00:48;;;;;;;32.88;14.40;;;8.00;99.90;;;;;;4163798;28;20064;-79
2022/01/12 07:02:50;;;;;;;32.97;14.23;;;8.00;99.90;;;;;;4169701;28;20053;-80
2022/01/12 07:04:52;;;;;;;29.88;13.88;;;8.00;99.90;;;;;;4174226;28;20076;-87
2022/01/12 07:06:54;;;;;;;30.00;13.40;;;8.00;99.90;;;;;;4167932;28;20041;-78
2022/01/12 07:08:56;;;;;;;30.77;15.30;;;8.00;99.90;;;;;;4172039;28;20041;-78
2022/01/12 07:10:58;;;;;;;31.60;13.35;;;8.00;99.90;;;;;;4163053;28;20050;-79
2022/01/12 07:13:00;;;;;;;30.88;13.35;;;8.00;99.90;;;;;;4178137;28;20049;-80
2022/01/12 07:15:02;;;;;;;32.53;13.55;;;8.00;99.90;;;;;;4163578;28;20563;-81
2022/01/12 07:17:05;;;;;;;31.80;13.18;;;8.00;99.90;;;;;;4164165;28;20065;-78
2022/01/12 07:19:08;;;;;;;32.70;12.93;;;8.00;99.90;;;;;;4163571;28;20668;-79
2022/01/12 07:21:14;;;;;;;49.80;23.15;;;8.00;99.90;;;;;;4167148;28;20056;-81
2022/01/12 07:23:16;;;;;;;45.30;21.50;;;8.00;99.90;;;;;;4180163;28;20096;-79
2022/01/12 07:25:18;;;;;;;38.03;19.02;;;8.00;99.90;;;;;;4166314;28;20080;-79
2022/01/12 07:27:20;;;;;;;31.75;15.65;;;8.00;99.90;;;;;;4180717;28;20124;-78
2022/01/12 07:29:22;;;;;;;31.70;14.63;;;8.00;99.90;;;;;;4182235;28;20041;-79
2022/01/12 07:31:24;;;;;;;31.25;14.15;;;8.00;99.90;;;;;;4177128;28;20041;-77
2022/01/12 07:33:26;;;;;;;32.90;12.90;;;8.00;99.90;;;;;;4183154;28;20099;-80
2022/01/12 07:35:28;;;;;;;34.72;13.13;;;8.00;99.90;;;;;;4183394;28;20052;-79
2022/01/12 07:37:30;;;;;;;30.27;13.60;;;8.00;99.90;;;;;;4181633;28;20052;-79
2022/01/12 07:39:32;;;;;;;32.88;13.68;;;8.00;99.90;;;;;;4170460;28;20076;-78
2022/01/12 07:41:34;;;;;;;33.60;15.38;;;7.90;99.90;;;;;;4179159;28;20703;-79
2022/01/12 07:43:36;;;;;;;36.40;14.23;;;7.90;99.90;;;;;;4166121;28;20046;-79
2022/01/12 07:45:38;;;;;;;38.13;14.70;;;8.00;99.90;;;;;;4175889;28;20052;-78
2022/01/12 07:47:40;;;;;;;28.85;14.25;;;8.00;99.90;;;;;;4170960;28;20051;-78
2022/01/12 07:49:42;;;;;;;38.25;17.45;;;8.00;99.90;;;;;;4166191;28;20080;-79
2022/01/12 07:51:45;;;;;;;44.88;18.88;;;8.00;99.90;;;;;;4166488;28;20132;-78
2022/01/12 07:53:47;;;;;;;35.67;15.07;;;8.00;99.90;;;;;;4170157;28;20077;-79
2022/01/12 07:55:49;;;;;;;33.15;13.57;;;8.00;99.90;;;;;;4182791;28;20052;-78
2022/01/12 07:57:51;;;;;;;35.55;14.05;;;8.00;99.90;;;;;;4182712;28;20065;-78
2022/01/12 07:59:53;;;;;;;34.05;13.75;;;8.00;99.90;;;;;;4182861;28;20727;-78
2022/01/12 08:01:57;;;;;;;30.17;13.82;;;8.00;99.90;;;;;;4178449;28;20073;-77
2022/01/12 08:03:59;;;;;;;28.00;13.63;;;8.10;99.90;;;;;;4182684;28;20059;-78
2022/01/12 08:06:01;;;;;;;34.65;14.52;;;8.10;99.90;;;;;;4177461;28;20088;-79
2022/01/12 08:08:03;;;;;;;31.55;12.93;;;8.10;99.90;;;;;;4165907;28;20100;-78
2022/01/12 08:10:09;;;;;;;30.50;13.77;;;8.10;99.90;;;;;;4180361;28;20075;-79
2022/01/12 08:12:11;;;;;;;35.58;15.40;;;8.10;99.90;;;;;;4182447;28;20053;-79
2022/01/12 08:14:15;;;;;;;33.85;15.00;;;8.10;99.90;;;;;;4181203;28;20480;-78
2022/01/12 08:16:17;;;;;;;34.22;13.95;;;8.10;99.90;;;;;;4179679;28;20079;-78
2022/01/12 08:18:19;;;;;;;37.25;15.43;;;8.10;99.90;;;;;;4173424;28;20468;-78
2022/01/12 08:20:25;;;;;;;33.30;14.15;;;8.10;99.90;;;;;;4173814;28;20492;-79
2022/01/12 08:22:28;;;;;;;34.47;14.35;;;8.10;99.90;;;;;;4176066;28;20041;-79
2022/01/12 08:24:30;;;;;;;32.72;14.43;;;8.20;99.90;;;;;;4177062;28;20061;-79
2022/01/12 08:26:41;;;;;;;27.65;12.73;;;8.20;99.90;;;;;;4171290;28;20621;-79
2022/01/12 08:28:42;;;;;;;27.05;11.80;;;8.20;99.90;;;;;;4165366;28;20045;-78
2022/01/12 08:30:44;;;;;;;30.48;12.38;;;8.20;99.90;;;;;;4170732;28;20072;-78
2022/01/12 08:32:48;;;;;;;27.73;13.45;;;8.20;99.90;;;;;;4181734;28;20085;-78
2022/01/12 08:34:50;;;;;;;27.10;12.88;;;8.20;99.90;;;;;;4165625;28;20069;-78
2022/01/12 08:36:52;;;;;;;29.75;13.40;;;8.20;99.90;;;;;;4165394;28;20449;-78
2022/01/12 08:38:55;;;;;;;28.17;12.80;;;8.20;99.90;;;;;;4164615;28;20057;-79
2022/01/12 08:40:57;;;;;;;25.02;12.13;;;8.20;99.90;;;;;;4168320;28;20049;-78
2022/01/12 08:42:59;;;;;;;27.80;13.38;;;8.30;99.90;;;;;;4181858;28;20041;-78
2022/01/12 08:45:02;;;;;;;27.73;12.70;;;8.30;99.90;;;;;;4170636;28;20609;-77
2022/01/12 08:47:05;;;;;;;24.90;10.95;;;8.40;99.90;;;;;;4165310;28;20057;-78
2022/01/12 08:49:08;;;;;;;23.45;10.75;;;8.40;99.90;;;;;;4164285;28;20041;-79
2022/01/12 08:51:10;;;;;;;20.02;10.60;;;8.40;99.90;;;;;;4173758;28;20080;-79
2022/01/12 08:53:12;;;;;;;19.48;10.07;;;8.30;99.90;;;;;;4173552;28;20128;-79
2022/01/12 08:55:16;;;;;;;22.27;10.48;;;8.40;99.90;;;;;;4165638;28;20049;-80
2022/01/12 08:57:18;;;;;;;19.87;9.67;;;8.40;99.90;;;;;;4165052;28;20083;-80
2022/01/12 08:59:22;;;;;;;22.60;10.32;;;8.40;99.90;;;;;;4169479;28;20734;-86
2022/01/12 09:01:24;;;;;;;17.38;9.32;;;8.40;99.90;;;;;;4172721;28;20041;-87
2022/01/12 09:03:26;;;;;;;19.25;10.38;;;8.50;99.90;;;;;;4168365;28;20060;-80
2022/01/12 09:05:29;;;;;;;18.25;8.70;;;8.50;99.90;;;;;;4179096;28;20088;-79
2022/01/12 09:07:31;;;;;;;17.48;8.85;;;8.50;99.90;;;;;;4165163;28;20053;-79
2022/01/12 09:09:33;;;;;;;18.52;8.73;;;8.50;99.90;;;;;;4169666;28;20521;-81
2022/01/12 09:11:35;;;;;;;17.98;9.55;;;8.50;99.90;;;;;;4181857;28;20041;-80
2022/01/12 09:13:37;;;;;;;15.98;8.82;;;8.60;99.90;;;;;;4181942;28;20096;-80
2022/01/12 09:15:39;;;;;;;19.27;9.90;;;8.70;99.90;;;;;;4176786;28;20124;-81
2022/01/12 09:17:42;;;;;;;19.52;9.18;;;8.60;99.90;;;;;;4168120;28;20579;-79
2022/01/12 09:19:46;;;;;;;18.08;9.20;;;8.60;99.90;;;;;;4186635;28;20104;-81
2022/01/12 09:21:49;;;;;;;18.75;9.93;;;8.70;99.90;;;;;;4166984;28;20498;-89
2022/01/12 09:23:51;;;;;;;18.95;10.02;;;8.70;99.90;;;;;;4180279;28;20076;-80
2022/01/12 09:25:53;;;;;;;21.75;10.77;;;8.80;99.90;;;;;;4174946;28;20079;-80
2022/01/12 09:27:56;;;;;;;15.18;8.90;;;8.80;99.90;;;;;;4167557;28;20079;-80
2022/01/12 09:29:58;;;;;;;18.05;9.30;;;8.80;99.90;;;;;;4173351;28;20105;-80
2022/01/12 09:32:00;;;;;;;18.20;9.60;;;8.80;99.90;;;;;;4173129;28;20136;-80
2022/01/12 09:34:04;;;;;;;16.42;8.93;;;8.80;99.90;;;;;;4176558;28;20045;-79
2022/01/12 09:36:06;;;;;;;16.25;9.13;;;8.90;99.90;;;;;;4173700;28;20088;-79
2022/01/12 09:38:09;;;;;;;16.27;8.95;;;8.90;99.90;;;;;;4169087;28;20713;-79
2022/01/12 09:40:11;;;;;;;17.63;9.48;;;8.90;99.90;;;;;;4181500;28;20049;-80
2022/01/12 09:42:13;;;;;;;14.77;8.82;;;8.90;99.90;;;;;;4177854;28;20135;-80
2022/01/12 09:44:17;;;;;;;17.85;9.35;;;8.90;99.90;;;;;;4167577;28;20049;-80
2022/01/12 09:46:22;;;;;;;18.30;9.90;;;8.90;99.90;;;;;;4164375;28;20077;-82
2022/01/12 09:48:26;;;;;;;19.10;9.48;;;9.00;99.90;;;;;;4178593;28;20705;-81
2022/01/12 09:50:28;;;;;;;17.83;9.80;;;9.10;99.90;;;;;;4180277;28;20080;-80
2022/01/12 09:52:29;;;;;;;16.95;9.45;;;9.10;99.90;;;;;;4172760;28;20080;-80
2022/01/12 09:54:31;;;;;;;18.30;8.45;;;9.10;99.90;;;;;;4169140;28;20119;-80
2022/01/12 09:56:33;;;;;;;18.55;9.38;;;9.10;99.90;;;;;;4174691;28;20080;-80
2022/01/12 09:58:35;;;;;;;16.13;8.57;;;9.20;99.90;;;;;;4169417;28;20077;-80
2022/01/12 10:00:38;;;;;;;14.05;8.52;;;9.30;99.90;;;;;;4181737;28;20174;-78
2022/01/12 10:02:41;;;;;;;12.48;7.90;;;9.30;99.90;;;;;;4173319;28;20060;-80
2022/01/12 10:04:43;;;;;;;19.88;8.07;;;9.20;99.90;;;;;;4176104;28;20053;-79
2022/01/12 10:06:48;;;;;;;15.57;8.63;;;9.20;99.90;;;;;;4173280;28;20087;-80
2022/01/12 10:08:53;;;;;;;12.32;7.63;;;9.30;99.90;;;;;;4180408;28;20072;-79
2022/01/12 10:11:10;;;;;;;12.73;8.48;;;9.20;99.90;;;;;;4179587;28;20091;-81
2022/01/12 10:13:23;;;;;;;13.85;7.80;;;9.20;99.90;;;;;;4173778;28;20085;-79
2022/01/12 10:15:29;;;;;;;14.32;7.95;;;9.20;99.90;;;;;;4164275;28;20797;-79
2022/01/12 10:17:33;;;;;;;12.57;7.68;;;9.20;99.90;;;;;;4164646;28;20139;-79
2022/01/12 10:19:36;;;;;;;13.48;8.07;;;9.30;99.90;;;;;;4170641;28;20118;-80
2022/01/12 10:21:40;;;;;;;17.75;8.40;;;9.30;99.90;;;;;;4180143;28;20045;-79
2022/01/12 10:23:42;;;;;;;15.00;7.80;;;9.40;99.90;;;;;;4185590;28;20044;-80
2022/01/12 10:25:46;;;;;;;12.25;7.32;;;9.40;99.90;;;;;;4172297;28;20052;-79
2022/01/12 10:27:48;;;;;;;13.27;8.18;;;9.40;99.90;;;;;;4166860;28;20064;-79
2022/01/12 10:30:01;;;;;;;13.77;8.65;;;9.50;99.90;;;;;;4164003;28;20080;-80
2022/01/12 10:32:05;;;;;;;16.63;7.95;;;9.50;99.90;;;;;;4164390;28;20533;-80
2022/01/12 10:34:07;;;;;;;13.68;8.93;;;9.50;99.90;;;;;;4166028;28;20428;-80
2022/01/12 10:36:11;;;;;;;11.75;7.78;;;9.60;99.90;;;;;;4167685;28;20049;-79
2022/01/12 10:38:15;;;;;;;11.10;7.95;;;9.60;99.90;;;;;;4164250;28;20052;-80
2022/01/12 10:40:17;;;;;;;11.73;7.72;;;9.70;99.90;;;;;;4167386;28;21133;-80
2022/01/12 10:42:24;;;;;;;12.60;7.97;;;9.80;99.90;;;;;;4167162;28;20084;-80
2022/01/12 10:44:32;;;;;;;12.65;7.70;;;9.80;99.90;;;;;;4172246;28;20048;-81
2022/01/12 10:46:34;;;;;;;12.40;7.90;;;9.80;99.90;;;;;;4178550;28;20128;-79
2022/01/12 10:48:45;;;;;;;12.00;8.02;;;9.80;99.90;;;;;;4180486;28;20041;-80
2022/01/12 10:50:58;;;;;;;10.10;7.28;;;9.80;99.90;;;;;;4168227;28;20099;-82
2022/01/12 10:52:59;;;;;;;10.43;7.20;;;9.70;99.90;;;;;;4163737;28;20049;-79
2022/01/12 10:55:06;;;;;;;11.30;7.38;;;9.70;99.90;;;;;;4163956;28;20041;-80
2022/01/12 10:57:18;;;;;;;11.82;8.30;;;9.60;99.90;;;;;;4173450;28;20081;-79
2022/01/12 10:59:21;;;;;;;12.90;8.15;;;9.60;99.90;;;;;;4163787;28;20052;-78
2022/01/12 11:01:26;;;;;;;14.65;8.25;;;9.70;99.90;;;;;;4180125;28;20052;-79
2022/01/12 11:03:33;;;;;;;13.70;9.18;;;9.80;99.90;;;;;;4180250;28;20076;-79
2022/01/12 11:05:35;;;;;;;12.45;8.57;;;9.90;99.90;;;;;;4174200;28;20053;-78
2022/01/12 11:07:37;;;;;;;13.05;8.88;;;10.00;99.90;;;;;;4181815;28;20087;-80
2022/01/12 11:09:39;;;;;;;12.55;8.32;;;10.10;99.90;;;;;;4173565;28;20079;-80
2022/01/12 11:11:41;;;;;;;13.60;9.23;;;10.20;99.90;;;;;;4176708;28;20118;-80
2022/01/12 11:13:45;;;;;;;14.15;9.15;;;10.30;99.90;;;;;;4180270;28;20083;-79
2022/01/12 11:15:48;;;;;;;12.15;8.43;;;10.40;99.90;;;;;;4180187;28;20176;-79
2022/01/12 11:17:51;;;;;;;11.63;7.30;;;10.50;99.90;;;;;;4177861;28;20056;-80
2022/01/12 11:20:18;;;;;;;11.80;7.80;;;10.50;99.90;;;;;;4175446;28;20045;-78
2022/01/12 11:22:40;;;;;;;11.40;8.05;;;10.60;99.90;;;;;;4168634;28;20057;-78
2022/01/12 11:24:42;;;;;;;11.65;7.57;;;10.50;99.90;;;;;;4175539;28;20052;-79
2022/01/12 11:26:49;;;;;;;15.43;8.50;;;10.50;99.90;;;;;;4178177;28;20057;-77
2022/01/12 11:28:52;;;;;;;9.63;7.47;;;10.60;99.90;;;;;;4176668;28;20052;-80
2022/01/12 11:30:57;;;;;;;21.58;9.65;;;10.50;99.90;;;;;;4174322;28;20077;-84
2022/01/12 11:33:02;;;;;;;26.17;9.43;;;10.60;99.90;;;;;;4174719;28;20159;-87
2022/01/12 11:35:04;;;;;;;;;;;10.60;99.90;;;;;;4180305;28;20052;-80
2022/01/12 11:37:15;;;;;;;17.27;9.63;;;10.60;99.90;;;;;;4172211;28;19928;-80
2022/01/12 11:39:17;;;;;;;23.42;9.77;;;10.60;99.90;;;;;;4174141;28;20521;-79
2022/01/12 11:41:28;;;;;;;21.33;11.00;;;10.60;99.90;;;;;;4169310;28;20109;-79
2022/01/12 11:43:30;;;;;;;22.50;10.13;;;10.60;99.90;;;;;;4169733;28;20045;-80
2022/01/12 11:45:32;;;;;;;18.80;9.77;;;10.70;99.90;;;;;;4181515;28;20049;-80
2022/01/12 11:47:43;;;;;;;24.20;10.30;;;10.60;99.90;;;;;;4180431;28;20130;-79